Date,TemperatureHighF,TemperatureAvgF,TemperatureLowF,DewpointHighF,DewpointAvgF,DewpointLowF,HumidityHigh,HumidityAvg,HumidityLow,PressureMaxIn,PressureMinIn,WindSpeedMaxMPH,WindSpeedAvgMPH,GustSpeedMaxMPH,PrecipitationSumIn
2014-1-3,18.0,14.8,13.1,-3.5,-31.2,-99.9,45,27,31,30.39,30.27,0,0,0,0.00
2014-1-4,45.9,26.9,10.2,6.6,-34.7,-99.9,52,16,19,30.27,30.06,6,1,16,0.00
2014-1-5,54.7,40.3,25.5,25.3,13.4,-3.3,46,34,26,30.09,29.53,5,2,14,0.00
2014-1-6,29.7,11.4,-1.7,15.4,-62.7,-99.9,55,16,27,30.36,29.74,7,4,19,0.00
2014-1-7,14.4,5.1,-3.3,-13.4,-95.7,-99.9,27,1,27,30.50,30.36,6,2,14,0.00
2014-1-8,34.0,20.0,5.5,4.6,-39.7,-99.9,44,17,22,30.47,30.39,5,1,11,0.00
2014-1-9,42.8,31.8,23.9,15.1,7.3,1.6,51,37,20,30.47,30.27,4,1,8,0.00
2014-1-10,50.5,41.4,34.5,38.7,30.5,13.8,77,65,41,30.27,29.82,4,1,7,0.16
2014-1-11,59.4,49.5,39.4,49.6,31.7,13.5,85,55,19,29.85,29.50,9,4,21,0.56
2014-1-12,51.8,41.1,34.2,21.2,15.2,7.9,50,36,21,30.06,29.82,6,2,12,0.00
2014-1-13,54.3,43.5,32.7,39.6,23.8,11.1,74,48,20,29.97,29.76,7,2,18,0.20
2014-1-14,54.3,45.6,39.2,38.5,24.0,5.9,79,48,18,29.88,29.74,6,2,15,0.16
2014-1-15,39.0,34.7,28.8,22.6,7.6,-1.8,53,33,21,30.06,29.88,5,2,11,0.04
2014-1-16,37.9,33.7,21.7,13.1,3.4,0.1,53,28,21,30.00,29.79,7,3,13,0.00
2014-1-17,40.8,30.1,18.5,22.6,10.4,-10.8,62,44,25,30.06,29.79,6,1,13,0.04
2014-1-18,31.3,24.2,16.5,3.2,-2.4,-9.6,41,31,25,30.06,29.76,0,0,0,0.00
2014-1-19,42.3,36.1,29.3,14.5,6.7,0.9,42,29,20,29.94,29.76,7,3,15,0.00
2014-1-20,54.1,41.3,33.8,14.0,9.1,4.5,38,27,19,29.85,29.76,6,3,16,0.00
2014-1-21,34.0,23.9,6.6,22.3,-9.0,-99.9,72,40,33,30.09,29.71,8,3,12,0.00
2014-1-22,24.6,10.7,-3.8,-3.1,-49.6,-99.9,41,16,24,30.15,30.00,5,1,11,0.00
2014-1-23,22.1,12.0,-2.2,-0.4,-55.9,-99.9,45,15,25,30.56,30.06,6,2,13,0.00
2014-1-24,24.1,9.9,-6.3,-6.7,-51.4,-99.9,27,14,24,30.59,29.91,6,2,18,0.00
2014-1-25,36.9,26.1,14.5,12.9,-0.2,-13.7,57,33,23,29.91,29.56,9,4,19,0.00
2014-1-26,51.4,28.2,4.6,15.3,-29.8,-99.9,38,17,18,29.91,29.59,8,2,20,0.08
2014-1-27,47.1,25.2,8.6,13.1,-20.7,-99.9,33,21,24,30.33,29.62,6,3,17,0.00
2014-1-28,17.2,7.7,0.7,-11.7,-87.8,-99.9,27,4,26,30.41,30.27,5,2,8,0.00
2014-1-29,27.0,9.7,-4.9,-4.9,-65.0,-99.9,27,10,24,30.36,30.27,5,1,10,0.00
2014-1-30,40.1,21.4,-0.9,3.4,-39.4,-99.9,34,14,21,30.30,29.97,6,1,12,0.00
2014-1-31,45.5,36.4,27.9,6.8,1.7,-5.1,31,23,19,30.15,30.03,5,1,12,0.00
2014-2-1,64.4,47.4,33.8,19.9,11.8,5.7,33,24,18,30.06,29.88,6,2,16,0.00
2014-2-2,53.1,43.0,32.2,40.3,29.8,18.9,75,62,26,30.15,29.91,5,2,11,0.88
2014-2-3,34.9,31.0,28.6,25.7,18.7,14.2,76,61,43,30.30,29.97,0,0,0,0.32
2014-2-4,32.5,30.3,28.0,26.1,21.3,15.8,77,69,59,30.30,29.85,0,0,0,0.04
2014-2-5,32.5,32.5,32.4,26.1,26.1,26.1,77,77,77,29.91,29.85,0,0,0,0.00
2014-2-6,24.8,24.5,24.3,7.7,7.4,6.8,48,47,46,29.32,29.29,0,0,0,0.00
2014-2-7,33.8,24.4,19.6,7.5,3.7,-1.3,51,41,25,29.38,29.26,0,0,0,0.04
2014-2-8,36.3,26.1,18.5,15.1,6.3,0.7,55,43,29,29.26,29.09,1,0,6,0.00
2014-2-9,36.9,30.9,26.4,26.6,16.0,10.2,66,54,44,29.14,29.00,4,0,10,0.00
2014-2-10,35.4,24.0,13.6,11.3,-0.5,-99.9,55,38,22,29.29,29.12,4,1,7,0.08
2014-2-11,33.3,18.4,7.9,-1.3,-44.0,-99.9,40,16,22,29.38,29.26,5,1,9,0.00
2014-2-12,15.3,13.1,11.3,-7.1,-70.6,-99.9,36,11,35,29.29,29.23,1,0,5,0.00
2014-2-23,40.5,35.0,32.2,21.6,20.3,18.9,61,55,42,29.09,29.03,6,1,9,0.00
2014-2-24,44.1,32.2,23.0,19.9,5.3,-1.8,61,34,20,29.23,29.09,5,1,13,0.04
2014-2-25,44.6,32.7,27.7,8.6,2.7,-2.0,41,28,20,29.12,28.97,5,1,10,0.00
2014-2-26,36.1,26.7,19.0,10.0,-1.1,-10.8,49,31,22,29.06,28.82,5,2,10,0.04
2014-2-27,38.7,25.6,17.2,2.1,-5.7,-11.4,31,25,21,29.06,28.79,7,4,15,0.00
2014-2-28,44.1,26.2,11.8,5.5,-19.3,-99.9,32,20,20,29.17,29.03,6,3,11,0.00
2014-3-1,54.9,39.9,24.4,24.1,10.6,-4.0,54,31,20,29.17,29.06,5,1,10,0.00
2014-3-2,44.1,36.2,24.1,27.3,21.4,10.8,76,56,34,29.09,28.97,6,2,10,0.68
2014-3-3,26.4,17.3,6.3,10.8,-21.4,-99.9,58,33,24,29.29,29.06,0,0,0,0.00
2014-3-4,44.2,22.9,4.1,5.7,-37.1,-99.9,39,16,20,29.26,29.09,6,1,10,0.16
2014-3-5,47.7,31.5,16.0,11.1,2.7,-2.6,53,31,19,29.23,29.12,5,1,12,0.12
2014-3-6,49.3,36.2,24.4,11.8,3.4,-4.9,40,25,19,29.20,29.03,6,4,12,0.00
2014-3-7,64.6,43.5,27.5,20.1,14.7,10.2,52,34,18,29.03,28.88,5,0,9,0.00
2014-3-8,65.5,47.9,30.9,30.6,17.9,11.8,66,35,17,29.03,28.91,7,2,15,0.00
2014-3-9,55.8,42.6,33.6,22.8,15.3,4.6,60,35,19,29.20,29.00,6,2,11,0.00
2014-3-10,68.9,48.0,29.7,22.3,16.5,11.5,53,32,17,29.00,28.73,7,2,16,0.00
2014-3-11,78.6,58.0,44.1,27.1,20.7,14.2,44,25,15,28.76,28.58,7,2,15,0.00
2014-3-12,61.2,46.5,29.8,48.7,24.9,11.1,69,43,27,28.88,28.20,8,3,24,0.36
2014-3-13,42.1,31.0,22.8,16.0,1.5,-3.8,56,29,20,29.14,28.88,5,2,12,0.04
2014-3-14,67.1,47.9,28.6,20.8,9.6,-2.0,28,21,17,29.09,28.82,9,4,23,0.00
2014-3-15,68.7,55.9,40.6,22.1,15.5,5.7,29,20,17,29.03,28.88,9,3,21,0.00
2014-3-16,45.1,35.3,26.6,18.7,11.5,5.4,66,40,22,29.00,28.85,9,6,18,0.00
2014-3-17,41.4,33.0,25.2,21.0,11.8,8.2,58,42,28,28.85,28.76,7,3,13,0.12
2014-3-18,64.6,45.9,35.6,22.8,18.6,15.1,52,36,18,28.94,28.82,6,2,12,0.00
2014-3-19,63.1,50.0,39.0,37.2,24.7,17.1,72,41,18,28.94,28.79,7,3,19,0.00
2014-3-20,61.0,46.8,37.9,20.1,13.0,5.9,39,26,19,29.09,28.94,6,2,14,0.00
2014-3-21,72.5,52.4,33.1,23.7,15.4,7.2,43,24,16,29.03,28.85,8,2,18,0.00
2014-3-22,69.8,56.9,44.1,23.0,15.7,9.5,27,20,17,29.09,28.82,7,4,13,0.00
2014-3-23,50.0,39.5,29.7,12.7,6.9,-3.5,37,26,19,29.23,29.09,6,3,11,0.00
2014-3-24,49.6,34.5,20.5,9.1,1.6,-5.8,44,25,19,29.26,29.03,5,2,10,0.00
2014-3-25,35.4,30.8,27.1,17.2,11.6,1.0,56,45,24,29.09,28.94,4,1,8,0.00
2014-3-26,45.9,31.6,22.8,6.6,0.9,-5.8,44,27,19,29.32,29.09,5,2,11,0.00
2014-3-27,64.2,43.8,24.6,19.8,10.9,0.9,47,28,18,29.23,28.82,7,3,18,0.00
2014-3-28,71.8,59.8,49.5,41.7,29.0,15.6,62,33,16,29.03,28.82,8,4,22,0.24
2014-3-29,52.2,44.2,33.4,39.0,29.6,23.7,70,57,40,29.03,28.70,7,2,10,0.96
2014-3-30,58.6,41.9,33.6,25.5,15.6,5.5,70,38,19,29.12,28.97,5,2,10,0.04
2014-3-31,71.2,48.2,28.4,24.6,16.7,8.2,57,32,16,29.20,28.97,0,0,0,0.00
2014-4-1,84.6,62.4,40.6,28.9,21.2,9.1,41,22,13,29.00,28.91,8,3,18,0.00
2014-4-2,78.8,61.5,48.4,29.8,21.3,12.4,36,22,15,29.09,28.94,7,3,15,0.00
2014-4-3,79.3,60.0,51.4,52.0,38.3,25.0,73,48,15,28.97,28.70,7,2,20,0.75
2014-4-4,69.6,59.8,46.0,55.0,38.3,14.0,81,50,17,28.94,28.58,9,4,19,0.28
2014-4-5,59.7,47.7,41.0,17.4,12.4,7.0,29,24,19,29.12,28.94,5,2,12,0.00
2014-4-6,72.0,50.6,31.3,23.5,16.2,9.5,51,28,16,29.12,28.88,7,2,14,0.00
2014-4-7,67.3,57.1,50.2,41.0,30.7,12.7,63,38,20,28.88,28.38,8,3,23,0.08
2014-4-8,67.8,54.3,45.1,29.8,22.6,15.1,52,31,17,28.73,28.50,9,3,26,0.00
2014-4-9,68.7,54.1,43.2,29.3,20.7,9.5,50,29,17,29.03,28.73,5,2,10,0.00
2014-4-10,80.1,58.0,35.1,27.7,20.8,12.4,53,27,14,29.09,28.88,8,3,19,0.00
2014-4-11,73.9,64.2,55.6,44.2,25.4,17.8,47,24,16,29.03,28.94,8,2,19,0.16
2014-4-12,85.5,65.9,49.5,46.2,31.4,19.6,69,34,13,29.14,28.91,6,2,15,0.00
2014-4-13,90.9,73.3,56.3,33.6,27.5,23.2,40,19,12,29.03,28.79,9,3,20,0.00
2014-4-14,74.3,70.2,65.7,38.5,27.1,22.3,34,20,15,28.79,28.61,7,4,20,0.00
2014-4-15,66.0,40.7,32.0,37.8,17.6,0.7,59,41,21,29.17,28.58,6,2,13,0.32
2014-4-16,56.8,41.1,25.7,16.5,9.6,2.3,55,30,18,29.35,29.17,8,3,15,0.00
2014-4-17,76.6,52.7,32.2,25.5,16.1,5.0,46,25,15,29.35,29.20,6,2,14,0.00
2014-4-18,80.2,58.3,42.4,28.0,18.8,7.7,38,23,14,29.26,29.12,5,2,11,0.00
2014-4-19,78.1,60.5,43.0,27.9,21.1,15.4,47,23,15,29.20,29.12,8,4,17,0.00
2014-4-20,84.7,63.2,42.3,28.8,20.3,9.9,38,20,13,29.20,29.06,6,2,14,0.00
2014-4-21,84.9,64.5,42.8,29.1,23.6,12.9,45,23,13,29.06,28.82,6,2,15,0.00
2014-4-22,81.1,65.6,54.1,44.6,29.5,14.0,56,28,14,28.85,28.67,5,2,12,0.00
2014-4-23,68.7,53.6,38.7,22.1,15.4,8.8,40,22,17,29.03,28.85,6,2,10,0.00
2014-4-24,76.8,57.0,41.5,25.7,18.6,12.6,41,24,15,29.06,28.76,6,2,13,0.00
2014-4-25,68.5,56.9,48.2,52.5,33.4,10.2,79,44,21,28.91,28.64,6,2,12,0.87
2014-4-26,84.6,62.4,42.1,46.0,28.6,17.6,75,36,13,28.91,28.85,6,2,17,0.00
2014-4-27,86.4,66.2,50.2,31.5,25.0,17.8,47,23,13,28.97,28.79,6,2,12,0.00
2014-4-28,73.0,63.3,57.2,56.3,42.1,18.3,72,48,18,28.85,28.67,5,1,12,0.48
2014-4-29,82.8,67.9,57.9,56.7,43.2,25.9,79,48,14,28.88,28.55,6,3,14,0.84
2014-4-30,62.2,58.0,54.9,52.0,48.3,41.9,75,70,59,28.88,28.70,4,2,10,1.32
2014-5-1,66.9,57.1,50.9,48.6,29.1,14.7,74,41,17,28.88,28.82,6,2,14,0.04
2014-5-2,67.8,55.8,43.9,31.6,22.0,16.0,50,28,17,28.91,28.82,6,2,14,0.00
2014-5-3,75.2,58.2,42.3,35.8,24.6,16.7,64,32,15,28.91,28.79,7,2,20,0.00
2014-5-4,86.4,64.8,47.8,37.8,26.7,17.4,54,27,13,28.97,28.85,5,2,13,0.00
2014-5-5,80.4,62.3,48.9,31.5,22.2,15.1,38,22,14,28.97,28.73,5,2,12,0.00
2014-5-6,84.9,65.3,49.5,33.6,27.4,19.0,53,27,13,28.91,28.82,5,2,9,0.00
2014-5-7,92.5,70.7,51.8,46.0,32.4,23.0,57,29,11,29.00,28.88,5,1,15,0.00
2014-5-8,92.5,72.0,55.9,45.9,34.0,24.1,56,30,11,29.12,28.97,6,1,14,0.00
2014-5-9,83.5,68.0,58.1,54.9,42.5,30.4,65,43,16,29.03,28.88,7,1,16,0.00
2014-5-10,72.3,65.2,59.0,54.5,50.3,43.7,72,59,36,29.00,28.88,4,1,12,0.32
2014-5-11,88.9,69.5,55.9,56.5,45.4,30.2,75,49,13,29.12,28.97,4,1,9,0.00
2014-5-12,93.0,75.8,64.6,59.9,46.9,29.8,74,43,11,29.09,28.97,4,1,12,0.00
2014-5-13,93.4,75.4,62.8,59.4,45.7,30.2,66,40,11,29.06,29.00,5,1,11,0.00
2014-5-14,91.2,74.1,64.6,61.9,46.8,28.2,73,45,12,29.06,28.82,6,1,16,0.00
2014-5-15,67.1,59.8,52.3,57.4,44.8,30.0,74,58,36,29.03,28.76,6,2,17,0.28
2014-5-16,62.1,52.3,44.4,40.5,31.3,20.8,70,47,21,29.03,28.91,5,1,15,0.16
2014-5-17,66.0,50.7,38.8,36.1,26.1,17.8,69,44,17,29.12,29.03,4,1,11,0.00
2014-5-18,57.9,51.7,47.1,25.2,22.3,19.8,42,32,24,29.20,29.17,0,0,0,0.00
2014-5-19,79.5,57.5,39.6,34.7,24.7,18.1,59,33,15,29.26,29.12,4,1,11,0.00
2014-5-20,87.1,66.1,48.2,41.4,31.3,25.0,59,32,13,29.14,28.97,6,2,14,0.00
2014-5-21,82.4,69.9,60.3,53.4,41.6,33.4,70,38,19,29.03,28.88,6,2,14,0.67
2014-5-22,88.0,71.5,62.6,56.5,46.9,35.4,78,47,18,28.97,28.85,6,1,19,0.00
2014-5-23,82.0,66.6,56.3,51.1,35.9,22.8,69,38,14,29.09,28.97,3,1,7,0.00
2014-5-24,82.8,63.6,48.2,44.1,32.5,23.0,62,36,14,29.17,29.09,4,1,8,0.00
2014-5-25,87.6,66.9,51.6,47.5,34.2,24.1,62,35,13,29.14,29.06,4,1,10,0.00
2014-5-26,94.6,71.5,53.2,49.1,39.0,30.0,62,36,11,29.12,29.00,3,1,10,0.00
2014-5-27,89.2,73.1,65.5,61.7,52.5,36.5,77,52,18,29.03,28.94,3,1,13,0.44
2014-5-28,88.5,71.1,63.0,61.2,53.0,37.4,74,57,18,29.00,28.94,5,0,13,0.16
2014-5-29,85.6,71.3,65.1,62.8,56.1,44.4,78,62,25,29.06,28.94,3,0,6,0.00
2014-5-30,86.0,70.4,62.1,60.8,49.3,34.9,76,52,20,29.09,29.00,3,0,7,0.00
2014-5-31,90.1,70.5,55.6,51.4,37.4,25.9,68,37,12,29.14,29.06,4,1,11,0.00
2014-6-1,91.2,72.5,57.6,53.8,43.7,35.4,63,40,14,29.14,29.03,5,1,10,0.00
2014-6-2,91.2,76.1,66.9,57.6,44.9,29.8,68,38,12,29.14,29.00,5,1,12,0.00
2014-6-3,88.5,74.1,67.5,59.2,51.7,39.7,72,49,19,29.03,28.88,4,1,10,0.87
2014-6-4,84.6,72.3,65.5,63.5,57.9,49.1,79,62,30,28.91,28.64,5,1,15,1.38
2014-6-5,81.0,68.6,61.0,60.6,44.4,30.0,73,45,17,28.91,28.70,4,1,10,0.00
2014-6-6,87.1,68.0,54.7,51.6,37.7,24.1,69,40,13,28.97,28.91,3,1,9,0.00
2014-6-7,90.5,69.2,52.7,50.2,37.7,26.6,64,38,12,29.00,28.85,4,0,10,0.00
2014-6-8,81.5,69.4,62.4,58.8,47.5,37.6,71,48,22,28.94,28.76,4,1,11,0.00
2014-6-9,79.3,67.8,58.3,54.1,45.1,33.3,70,48,20,28.94,28.85,3,0,7,0.00
2014-6-10,90.1,71.8,60.6,56.8,48.3,35.2,72,49,15,28.91,28.76,6,1,19,0.59
2014-6-11,83.1,70.7,64.8,60.8,54.3,38.5,75,59,21,28.85,28.73,6,1,13,0.40
2014-6-12,84.7,71.9,64.8,61.5,51.5,37.6,77,53,19,28.85,28.76,2,0,10,0.00
2014-6-13,80.4,67.8,60.1,59.7,50.3,42.4,72,55,31,28.97,28.82,3,0,6,0.55
2014-6-14,82.8,65.1,52.2,47.5,37.1,24.3,68,42,14,29.09,28.97,4,1,8,0.00
2014-6-15,93.7,70.7,51.3,52.9,40.5,28.9,66,40,11,29.12,29.00,3,0,7,0.00
2014-6-16,96.6,78.1,63.9,61.2,48.3,34.9,71,42,13,29.14,29.06,4,1,10,0.00
2014-6-17,96.1,79.4,66.4,62.6,48.5,32.7,70,41,11,29.12,28.97,4,1,15,0.00
2014-6-18,95.7,79.5,67.5,62.8,50.8,36.3,68,42,14,29.12,29.00,3,0,10,0.00
2014-6-19,89.4,75.4,69.3,66.7,56.5,45.3,73,54,29,29.09,29.00,2,0,11,0.28
2014-6-20,93.6,75.9,66.7,67.8,55.9,40.6,76,54,18,29.03,28.88,4,0,12,0.71
2014-6-21,89.6,74.8,67.5,65.3,54.7,39.7,77,55,19,28.94,28.82,1,0,7,0.00
2014-6-22,92.7,75.2,63.7,59.2,51.0,35.4,72,48,14,28.94,28.82,2,0,7,0.00
2014-6-23,98.6,80.1,68.4,61.5,48.7,35.4,71,40,13,28.97,28.88,6,1,14,0.00
2014-6-24,93.4,78.8,70.0,57.7,49.4,36.7,62,39,14,29.00,28.85,5,1,11,0.00
2014-6-25,89.6,76.7,70.9,64.2,54.9,40.5,73,50,19,28.94,28.85,3,0,8,0.16
2014-6-26,92.8,76.8,66.6,61.9,50.8,30.6,71,46,11,29.00,28.94,2,0,6,0.00
2014-6-27,95.7,77.8,65.3,61.2,47.4,30.7,69,41,11,29.06,28.97,4,0,8,0.00
2014-6-28,87.6,73.7,67.8,63.7,56.0,42.4,75,56,21,29.14,29.03,3,0,13,0.55
2014-6-29,91.4,76.9,69.4,63.9,56.4,40.5,79,55,18,29.12,29.03,5,1,18,0.08
2014-6-30,91.9,77.9,69.8,65.5,55.4,39.4,77,52,17,29.03,28.85,4,1,12,0.00
2014-7-1,95.2,80.7,71.6,63.7,54.4,40.1,72,46,16,28.88,28.79,4,1,12,0.00
2014-7-2,92.7,77.6,68.7,62.6,51.2,35.1,73,46,14,28.94,28.79,3,0,8,0.08
2014-7-3,85.3,73.7,65.8,57.4,42.9,27.0,67,39,13,29.09,28.91,4,1,11,0.00
2014-7-4,84.2,68.4,56.5,49.5,36.2,23.7,64,36,13,29.23,29.09,0,0,0,0.00
2014-7-5,88.7,68.5,53.1,49.3,35.7,23.9,68,37,13,29.29,29.12,3,0,9,0.00
2014-7-6,90.1,72.7,57.4,51.3,39.9,29.7,63,35,12,29.12,28.94,4,1,12,0.00
2014-7-7,94.6,78.7,67.1,49.1,39.0,28.4,51,28,11,28.94,28.82,6,2,14,0.00
2014-7-8,92.5,79.7,72.3,49.6,42.6,34.3,44,28,14,28.85,28.76,6,2,16,0.00
2014-7-9,90.5,75.9,66.7,62.1,46.8,29.7,70,41,12,28.97,28.85,4,0,15,0.24
2014-7-10,90.1,73.0,61.7,63.3,49.2,33.8,71,48,15,29.09,28.97,0,0,3,0.12
2014-7-11,92.3,74.3,61.3,59.0,44.4,27.7,71,42,12,29.17,29.09,4,0,9,0.00
2014-7-12,97.0,76.9,61.0,57.0,44.2,30.6,66,38,11,29.14,29.03,3,0,10,0.00
2014-7-13,97.7,80.8,70.7,62.1,47.9,34.7,66,37,13,29.03,28.88,5,1,12,0.20
2014-7-14,83.8,74.6,70.5,63.9,59.9,47.3,76,62,30,28.94,28.79,4,1,9,1.03
2014-7-15,86.2,72.4,61.2,62.8,47.9,27.3,78,49,13,28.91,28.79,3,0,9,0.28
2014-7-16,77.0,65.1,53.6,48.9,37.6,24.4,65,40,15,28.97,28.91,2,0,6,0.00
2014-7-17,83.8,67.6,55.9,49.5,36.7,24.4,66,37,13,29.09,28.97,3,0,8,0.00
2014-7-18,72.7,63.9,56.5,56.7,47.8,36.5,72,57,27,29.14,29.09,2,0,7,0.32
2014-7-19,75.2,68.0,64.2,61.5,57.7,50.5,79,70,42,29.09,28.97,3,0,9,0.36
2014-7-20,82.9,72.1,66.9,63.9,58.4,48.9,79,65,32,29.03,28.97,2,0,10,0.87
2014-7-21,91.2,76.3,67.5,66.0,57.4,40.3,79,58,18,29.09,29.00,3,0,10,0.04
2014-7-22,96.8,79.0,67.6,64.2,53.4,37.0,74,48,13,29.12,29.00,3,0,10,0.00
2014-7-23,94.8,79.1,70.0,68.4,53.7,37.6,73,47,14,29.03,28.88,0,0,7,0.00
2014-7-24,73.8,68.7,63.9,59.4,51.2,39.7,69,55,32,29.00,28.88,3,0,8,0.00
2014-7-25,87.4,69.2,56.1,54.3,43.8,26.8,74,46,13,29.09,28.97,3,0,8,0.00
2014-7-26,90.9,74.9,63.5,57.2,46.9,34.5,70,42,14,29.03,28.85,1,0,9,0.00
2014-7-27,82.6,72.8,69.3,67.8,59.3,48.9,78,64,31,28.94,28.70,5,1,17,1.11
2014-7-28,73.8,68.1,62.8,61.2,51.3,41.5,76,57,32,28.94,28.73,2,0,7,0.00
2014-7-29,76.1,63.9,56.3,49.6,43.6,31.6,69,50,21,29.03,28.91,2,0,8,0.00
2014-7-30,84.4,67.9,55.9,54.7,42.5,31.5,71,45,16,29.06,29.00,2,0,7,0.00
2014-7-31,89.2,70.7,57.9,56.1,43.6,28.4,68,43,13,29.09,29.03,0,0,5,0.00
2014-8-1,90.9,71.7,59.7,56.8,47.2,34.5,69,47,14,29.09,29.00,1,0,6,0.00
2014-8-2,86.7,70.7,64.0,57.4,51.4,37.0,69,53,18,29.06,29.00,0,0,4,0.00
2014-8-3,85.1,69.4,61.7,57.0,48.9,36.0,74,52,18,29.12,29.03,2,0,6,0.00
2014-8-4,89.2,71.6,59.5,55.8,45.6,30.0,69,45,12,29.12,29.00,1,0,6,0.00
2014-8-5,90.0,73.0,60.1,57.0,46.2,29.7,68,43,12,29.06,28.97,0,0,5,0.00
2014-8-6,89.2,75.7,66.2,59.7,49.9,38.5,69,45,18,28.97,28.91,0,0,3,0.00
2014-8-7,84.7,71.6,63.3,56.1,44.8,31.5,68,43,16,29.06,28.97,2,0,9,0.00
2014-8-8,74.3,67.7,61.9,60.8,52.3,43.9,74,59,42,29.06,28.97,0,0,5,0.12
2014-8-9,82.8,73.0,67.8,66.0,59.2,48.9,79,64,32,29.00,28.94,2,0,8,0.12
2014-8-10,84.7,73.3,66.4,63.3,57.8,48.2,76,61,30,29.00,28.91,4,1,13,0.00
2014-8-11,81.1,74.8,70.0,64.8,59.1,50.4,78,60,36,28.94,28.79,5,2,10,0.04
2014-8-12,85.5,73.8,64.6,64.0,53.0,37.4,75,51,21,28.91,28.76,4,1,15,0.31
2014-8-13,82.0,68.0,61.0,52.5,44.1,30.9,65,46,16,29.00,28.88,2,0,7,0.00
2014-8-14,85.3,67.5,59.9,59.0,49.7,37.2,71,56,19,29.03,28.94,4,0,8,0.00
2014-8-15,85.1,67.6,58.8,58.1,42.9,26.8,75,48,13,29.03,28.94,2,0,7,0.00
2014-8-16,87.6,68.9,52.5,57.6,42.5,26.2,67,44,13,29.00,28.94,3,1,10,0.00
2014-8-17,84.4,73.0,68.7,61.7,56.1,40.3,73,58,22,28.97,28.88,2,0,7,0.00
2014-8-18,83.3,74.1,69.4,66.0,60.0,48.7,79,63,32,28.88,28.76,3,0,7,0.08
2014-8-19,90.0,76.1,69.1,67.3,57.9,42.3,77,58,20,28.85,28.76,4,0,8,0.00
2014-8-20,91.2,76.2,66.6,63.0,55.6,42.8,77,54,19,29.00,28.82,4,1,10,0.67
2014-8-21,86.0,74.4,67.8,65.3,57.2,48.7,72,57,29,29.06,29.00,2,0,7,0.04
2014-8-22,93.0,77.5,70.5,69.8,60.7,46.9,79,60,21,29.03,28.88,3,0,9,0.55
2014-8-23,89.4,77.2,70.3,69.6,60.6,43.7,78,60,21,28.97,28.88,2,0,9,0.00
2014-8-24,93.0,77.9,70.0,64.8,55.9,35.8,76,52,14,29.00,28.91,3,0,8,0.00
2014-8-25,92.3,76.2,66.6,60.8,48.8,34.2,68,43,14,29.09,29.00,4,1,10,0.00
2014-8-26,91.0,73.3,61.3,55.2,45.3,29.1,69,43,12,29.12,29.03,4,0,8,0.00
2014-8-27,95.2,75.6,61.9,61.2,49.0,34.3,68,45,14,29.09,28.97,0,0,0,0.00
2014-8-28,87.1,75.2,68.4,62.4,52.7,37.0,72,50,18,29.06,29.00,2,0,7,0.00
2014-8-29,95.9,75.8,63.1,59.7,49.1,30.6,68,45,11,29.06,28.97,1,0,6,0.00
2014-8-30,95.4,79.6,69.6,62.6,50.6,30.4,73,44,11,29.06,29.00,2,0,8,0.04
2014-8-31,76.3,73.4,70.9,64.6,61.1,55.2,76,66,50,29.06,29.00,3,1,10,0.84
2014-9-1,89.8,75.6,71.4,66.9,61.3,40.6,79,65,18,29.03,28.94,4,1,16,0.16
2014-9-2,89.4,75.5,69.6,66.4,57.9,41.5,78,59,19,28.97,28.88,4,1,12,0.32
2014-9-3,84.7,73.7,68.9,63.9,56.1,41.9,77,57,24,29.06,28.97,3,0,8,0.00
2014-9-4,92.3,74.9,66.4,63.3,55.8,42.6,74,55,19,29.09,29.03,0,0,3,0.00
2014-9-5,91.8,77.3,68.4,64.9,55.9,40.6,76,53,17,29.14,29.00,0,0,4,0.00
2014-9-6,90.3,74.4,68.0,68.5,59.0,45.9,76,61,22,29.06,28.94,0,0,6,0.55
2014-9-7,78.8,67.0,59.4,55.4,41.3,25.0,65,43,15,29.14,29.03,0,0,4,0.00
2014-9-8,88.9,70.5,58.3,60.4,48.7,38.5,70,50,18,29.09,28.97,0,0,0,0.04
2014-9-9,88.9,73.5,64.4,61.2,51.8,34.2,74,51,15,29.06,28.97,0,0,4,0.00
2014-9-10,86.2,74.3,66.0,61.0,50.8,41.5,70,47,21,28.97,28.82,0,0,13,0.00
2014-9-11,77.0,71.6,65.7,66.2,56.5,44.2,74,60,43,29.06,28.82,0,0,8,1.50
2014-9-12,67.6,62.3,56.8,48.9,43.2,37.2,69,51,34,29.14,29.06,0,0,4,0.00
2014-9-13,69.4,60.9,52.7,48.4,40.5,28.8,62,48,23,29.23,29.03,0,0,0,0.00
2014-9-14,75.6,57.4,46.2,42.4,34.6,22.8,70,47,15,29.26,29.14,0,0,0,0.00
2014-9-15,77.4,61.5,47.8,50.9,40.1,30.6,68,49,18,29.17,28.97,0,0,0,0.00
2014-9-16,63.7,61.1,55.8,54.1,49.6,44.6,77,66,52,29.09,29.03,0,0,0,0.04
2014-9-17,75.6,60.2,50.0,46.8,38.9,24.3,72,50,15,29.06,28.91,0,0,0,0.00
2014-9-18,75.7,61.2,54.0,47.7,37.7,22.8,69,46,15,29.06,28.94,0,0,6,0.00
2014-9-19,81.7,62.7,50.2,47.7,38.2,26.6,66,45,14,29.12,29.03,0,0,5,0.00
2014-9-20,85.3,68.7,58.8,54.9,45.6,34.0,71,49,16,29.12,28.94,2,0,11,0.00
2014-9-21,85.3,68.7,60.1,60.3,46.1,25.7,76,49,19,28.94,28.76,3,0,12,0.00
2014-9-22,73.0,58.5,50.4,42.8,33.0,22.5,64,41,16,29.20,28.97,0,0,3,0.00
2014-9-23,75.0,56.5,42.8,40.1,30.4,20.5,67,42,15,29.29,29.20,4,0,13,0.00
2014-9-24,79.5,59.3,45.3,43.9,32.4,22.8,66,42,15,29.32,29.23,4,0,9,0.00
2014-9-25,83.3,64.1,50.7,50.7,39.6,31.1,68,45,16,29.26,29.14,3,0,7,0.00
2014-9-26,84.6,65.0,53.1,49.5,40.5,27.3,69,46,13,29.20,29.12,0,0,5,0.00
2014-9-27,86.4,66.3,54.3,52.3,41.0,27.7,70,45,13,29.17,29.09,3,0,6,0.00
2014-9-28,82.0,65.6,55.9,53.4,45.1,33.8,69,51,19,29.12,29.03,3,0,7,0.00
2014-9-29,85.1,68.3,59.4,57.4,47.6,32.4,72,51,16,29.03,28.88,2,0,6,0.00
2014-9-30,87.6,68.0,54.0,52.2,39.9,26.4,68,42,13,28.91,28.82,2,0,7,0.00
2014-10-1,84.0,67.2,60.6,48.0,43.5,31.6,59,45,17,29.00,28.91,2,0,6,0.00
2014-10-2,88.5,69.2,56.7,55.6,41.5,27.7,74,44,13,29.06,28.88,3,0,8,0.00
2014-10-3,74.1,65.0,57.0,57.2,48.2,42.1,70,55,32,28.88,28.67,4,1,16,0.44
2014-10-4,59.4,50.4,41.7,45.5,23.7,10.8,66,38,19,28.88,28.79,6,2,16,0.00
2014-10-5,65.1,49.6,36.1,30.4,21.2,15.1,60,36,18,28.91,28.79,5,1,16,0.00
2014-10-6,61.7,55.0,50.0,48.2,40.8,22.8,74,60,30,28.88,28.76,5,2,12,0.60
2014-10-7,63.5,57.5,50.5,52.2,46.5,40.6,77,67,48,28.91,28.70,6,2,16,0.20
2014-10-8,72.5,58.9,50.0,51.1,36.4,19.6,79,50,16,29.06,28.88,4,1,12,0.00
2014-10-9,65.3,54.1,44.4,50.4,40.3,31.1,74,60,40,29.12,29.00,2,0,6,0.04
2014-10-10,57.7,56.0,54.1,51.6,49.1,45.5,82,78,73,29.03,28.94,3,0,8,0.28
2014-10-11,56.3,53.4,50.7,48.9,42.9,32.7,82,69,43,29.12,28.94,3,1,7,0.08
2014-10-12,68.4,58.2,50.2,56.7,44.7,38.5,79,62,35,29.12,28.97,2,0,7,0.00
2014-10-13,77.9,66.7,59.2,61.9,49.3,37.2,82,57,28,29.06,28.85,5,2,12,0.12
2014-10-14,77.4,66.7,59.2,54.3,43.9,34.0,70,47,21,28.85,28.58,9,3,20,0.60
2014-10-15,63.1,57.2,52.5,52.0,41.6,29.3,74,58,29,28.79,28.73,5,1,11,0.04
2014-10-16,62.4,56.9,54.5,48.7,44.1,39.9,73,63,47,28.85,28.70,3,1,10,0.16
2014-10-17,75.7,60.8,50.0,44.4,36.2,27.0,74,45,18,28.85,28.64,6,2,14,0.00
2014-10-18,61.3,55.6,46.9,34.9,28.6,21.0,62,36,25,29.06,28.73,4,0,10,0.04
2014-10-19,63.7,51.7,43.0,37.8,26.2,16.2,66,41,18,29.17,29.03,4,0,8,0.00
2014-10-20,61.7,49.1,39.4,37.9,30.3,24.3,68,50,25,29.03,28.85,5,1,15,0.00
2014-10-21,60.4,51.4,45.5,45.7,30.4,17.4,73,48,22,29.09,28.88,2,0,7,0.00
2014-10-22,54.3,49.1,44.8,28.8,25.9,20.1,52,41,27,29.20,29.09,5,0,8,0.00
2014-10-23,65.1,51.9,42.6,31.6,24.3,17.1,54,36,18,29.20,29.06,4,0,7,0.00
2014-10-24,70.0,51.2,39.7,36.0,24.7,16.5,64,40,17,29.09,28.97,4,0,8,0.00
2014-10-25,70.7,53.7,38.8,45.5,30.7,23.2,65,44,22,29.03,28.88,4,0,10,0.00
2014-10-26,73.9,57.3,45.1,45.7,28.9,12.9,70,40,16,29.00,28.85,1,0,6,0.00
2014-10-27,81.1,60.3,40.5,36.1,27.5,18.7,54,32,14,29.00,28.88,1,0,12,0.00
2014-10-28,79.0,66.4,55.8,48.6,37.3,28.8,56,37,17,29.00,28.88,3,0,20,0.28
2014-10-29,68.2,56.1,46.4,40.6,27.9,13.3,63,38,17,29.06,28.97,5,1,11,0.04
2014-10-30,56.3,44.2,36.5,31.8,18.8,11.1,59,38,19,29.12,29.00,0,0,3,0.00
2014-10-31,48.7,41.4,35.1,33.1,26.3,19.4,60,55,44,29.00,28.82,3,0,8,0.24
2014-11-1,43.3,38.8,36.0,27.9,20.7,8.1,69,50,28,29.23,28.85,6,2,12,0.08
2014-11-2,52.0,37.7,28.4,15.8,10.4,3.9,53,34,18,29.41,29.23,4,0,9,0.00
2014-11-3,66.0,44.3,27.7,23.0,15.0,5.9,61,35,17,29.35,29.20,3,0,9,0.00
2014-11-4,67.6,55.4,41.9,21.2,15.5,7.3,31,21,17,29.20,29.06,1,0,13,0.00
2014-11-5,57.6,53.6,50.7,44.1,35.5,14.5,72,54,19,29.20,29.00,2,0,8,0.64
2014-11-6,59.9,51.7,43.3,45.5,32.7,19.0,75,51,25,29.00,28.79,6,3,17,0.12
2014-11-7,50.2,41.4,31.3,28.0,17.8,7.9,59,40,21,29.12,29.00,4,1,12,0.00
2014-11-8,55.4,42.7,28.8,30.0,17.5,11.1,65,40,20,29.03,28.82,6,1,13,0.00
2014-11-9,59.4,47.7,36.3,23.2,17.5,9.7,49,31,19,29.03,28.88,4,0,10,0.00
2014-11-10,68.9,48.5,32.4,29.5,18.7,9.3,63,35,17,29.00,28.82,0,0,6,0.00
2014-11-11,72.0,55.0,35.4,42.8,22.8,12.4,56,32,16,28.91,28.79,2,0,15,0.00
2014-11-12,50.5,39.9,37.4,33.6,16.8,10.4,55,39,31,29.17,28.91,2,0,7,0.04
2014-11-13,37.4,33.6,27.1,12.9,7.0,-2.6,39,32,25,29.23,29.12,0,0,4,0.00
2014-11-14,35.6,28.0,22.1,4.5,-0.0,-4.4,46,30,22,29.32,29.20,0,0,0,0.00
2014-11-15,41.0,29.3,17.2,9.5,3.0,-0.9,50,34,21,29.38,29.17,0,0,7,0.00
2014-11-16,45.0,37.6,31.5,30.2,19.3,5.2,69,49,22,29.17,28.82,0,0,4,0.28
2014-11-17,39.7,33.2,22.6,31.6,17.2,-6.3,73,54,27,29.06,28.64,3,0,11,0.64
2014-11-18,27.9,21.4,15.6,0.7,-6.2,-10.3,43,29,23,29.26,29.03,0,0,0,0.00
2014-11-19,48.0,31.7,12.7,7.7,2.0,-6.2,46,21,19,29.26,28.88,7,2,19,0.00
2014-11-20,40.6,33.7,23.7,8.8,2.9,-3.5,37,27,21,29.20,29.00,7,2,17,0.00
2014-11-21,41.7,27.3,17.6,8.8,0.4,-6.9,49,33,21,29.47,29.20,0,0,0,0.00
2014-11-22,60.6,39.7,20.5,18.1,7.9,-3.5,43,28,18,29.35,29.06,1,0,10,0.00
2014-11-23,64.0,52.1,39.7,47.1,25.2,8.6,72,38,18,29.06,28.35,7,2,20,0.32
2014-11-24,71.2,58.0,39.7,43.3,26.8,14.9,54,32,16,28.91,28.35,10,4,29,0.04
2014-11-25,55.8,41.6,31.3,25.2,14.8,6.1,59,36,19,29.12,28.91,3,0,15,0.00
2014-11-26,51.3,38.9,32.9,14.7,12.1,6.8,43,34,21,29.09,28.94,0,0,9,0.00
2014-11-27,35.6,33.4,31.3,16.7,10.9,4.3,50,39,27,29.32,28.97,0,0,8,0.00
2014-11-28,39.4,32.0,26.8,9.0,4.2,-1.7,44,31,21,29.35,29.09,1,0,10,0.00
2014-11-29,56.8,44.3,28.0,23.4,12.2,3.7,42,28,19,29.09,28.91,3,0,15,0.00
2014-11-30,66.9,60.8,54.7,30.2,27.4,22.3,35,28,22,29.09,28.94,4,1,19,0.00
2014-12-1,62.1,49.0,35.8,39.0,31.1,25.9,72,53,28,29.41,29.09,6,2,16,0.60
2014-12-2,45.9,39.3,35.1,38.1,30.0,23.9,74,69,63,29.38,29.09,5,1,10,0.28
2014-12-3,46.6,40.5,31.3,39.0,29.2,19.9,76,65,49,29.32,29.06,4,1,12,0.00
2014-12-4,37.8,34.5,30.4,30.2,25.9,22.1,74,71,64,29.35,29.20,4,0,8,0.12
2014-12-5,55.0,46.8,37.6,49.6,39.6,29.7,82,76,72,29.20,29.06,3,0,6,0.36
2014-12-6,56.3,47.6,36.3,50.9,37.7,18.5,84,69,46,29.41,28.94,6,2,12,0.84
2014-12-7,44.4,38.2,33.6,20.8,11.7,6.6,48,34,22,29.50,29.32,6,4,13,0.00
2014-12-8,46.6,38.5,32.5,19.2,11.2,5.5,47,33,19,29.32,29.06,5,1,10,0.00
2014-12-9,46.0,40.5,36.3,26.8,20.5,13.8,53,45,30,29.12,29.00,2,0,7,0.00
2014-12-10,38.5,35.9,32.5,25.0,15.9,5.5,60,45,31,29.14,29.09,3,1,8,0.00
2014-12-11,42.6,33.7,27.1,8.4,4.8,-0.4,44,30,20,29.17,29.09,0,0,7,0.00
2014-12-12,47.5,32.3,23.0,17.2,8.0,1.9,56,38,19,29.26,29.17,0,0,7,0.00
2014-12-13,40.5,36.8,28.2,21.4,19.1,9.7,57,49,40,29.26,29.14,3,0,7,0.00
2014-12-14,45.9,41.0,37.9,25.0,22.1,17.6,55,47,32,29.17,29.06,0,0,3,0.00
2014-12-15,54.5,44.9,39.9,27.0,21.1,12.0,58,41,20,29.09,28.79,1,0,7,0.00
2014-12-16,54.0,47.9,41.7,37.8,28.4,16.0,64,47,27,29.06,28.73,3,1,15,0.00
2014-12-17,41.5,36.3,32.5,25.2,17.5,9.5,60,47,34,29.20,29.06,6,0,11,0.04
2014-12-18,36.3,32.2,29.7,10.4,7.1,5.0,39,34,27,29.20,29.12,0,0,0,0.00
2014-12-19,35.8,29.2,23.5,13.8,8.0,3.4,54,41,27,29.23,29.14,0,0,3,0.00
2014-12-20,36.9,31.4,23.9,13.8,10.6,7.0,57,42,29,29.23,29.17,0,0,0,0.00
2014-12-21,44.2,34.3,28.6,15.6,11.8,7.2,51,40,22,29.26,29.06,0,0,5,0.00
2014-12-22,58.8,44.4,30.4,23.7,19.3,14.4,54,39,19,29.06,28.73,1,0,8,0.00
2014-12-23,63.0,54.3,47.8,49.6,39.8,22.5,80,60,34,28.82,28.70,3,0,6,0.72
2014-12-24,65.5,53.7,42.4,53.2,41.5,22.3,84,66,32,28.73,28.35,6,2,22,0.08
2014-12-25,44.2,39.3,29.7,24.6,15.8,11.1,54,39,27,29.20,28.73,3,0,13,0.00
2014-12-26,53.1,37.9,25.9,24.1,15.6,9.3,61,43,20,29.26,29.14,1,0,9,0.00
2014-12-27,60.4,48.9,38.3,25.3,19.6,12.6,54,34,19,29.20,29.00,2,0,10,0.00
2014-12-28,51.8,43.7,36.7,36.0,29.9,23.5,70,59,33,29.12,28.97,4,0,12,0.08
2014-12-29,42.4,36.0,30.7,25.7,15.0,7.7,64,43,26,29.23,29.09,5,1,10,0.00
2014-12-30,38.5,30.0,23.7,9.9,3.2,-3.8,42,32,21,29.47,29.23,2,0,10,0.00
2014-12-31,34.7,25.1,19.0,8.2,-0.0,-7.6,51,35,22,29.47,29.29,1,0,10,0.00
2015-1-1,39.9,28.6,18.3,5.7,0.3,-3.5,45,30,21,29.29,29.09,2,0,14,0.00
2015-1-2,37.6,35.9,33.1,22.6,14.5,1.2,57,42,25,29.29,29.20,0,0,4,0.00